Terminal Aerodrome Forecast
Issued by NWS Wilmington, OH

Current Version | Previous Version | Graphics & Text | Print | Product List | Glossary On
Versions: 1 2 3 4 5 6 7 8 9 10 11 12 13 14 15 16 17 18 19 20 21 22 23
000
FTUS41 KILN 231122
TAFCVG
TAF
KCVG 231122Z 2312/2418 05010KT P6SM FEW200
     FM231400 05012G17KT P6SM FEW230
     FM240000 05006KT P6SM FEW230
     FM241600 07012KT P6SM SCT100=

USA.gov is the U.S. government's official web portal to all federal, state and local government web resources and services.